createdAt,value
2023-04-19T00:01:48.671Z,102739.38
2023-04-19T00:04:16.060Z,102733.09
2023-04-19T00:06:42.779Z,102735.00
2023-04-19T00:09:09.426Z,102739.03
2023-04-19T00:11:35.959Z,102739.03
2023-04-19T00:14:02.561Z,102738.19
2023-04-19T00:16:29.172Z,102730.03
2023-04-19T00:18:55.949Z,102735.47
2023-04-19T00:21:22.529Z,102740.91
2023-04-19T00:23:49.027Z,102739.28
2023-04-19T00:26:18.134Z,102733.22
2023-04-19T00:28:44.630Z,102737.84
2023-04-19T00:31:11.400Z,102741.38
2023-04-19T00:33:37.915Z,102731.81
2023-04-19T00:36:04.660Z,102730.75
2023-04-19T00:38:33.640Z,102718.19
2023-04-19T00:41:00.281Z,102719.25
2023-04-19T00:43:26.750Z,102722.22
2023-04-19T00:45:53.829Z,102724.94
2023-04-19T00:48:20.583Z,102734.19
2023-04-19T00:50:47.288Z,102725.41
2023-04-19T00:53:14.372Z,102725.41
2023-04-19T00:55:40.985Z,102722.69
2023-04-19T00:58:08.762Z,102720.78
2023-04-19T01:00:36.998Z,102726.22
2023-04-19T01:03:04.272Z,102728.13
2023-04-19T01:05:31.185Z,102720.41
2023-04-19T01:07:57.700Z,102714.97
2023-04-19T01:10:24.244Z,102712.25
2023-04-19T01:12:50.850Z,102711.44
2023-04-19T01:15:17.413Z,102719.59
2023-04-19T01:17:44.055Z,102708.72
2023-04-19T01:20:11.650Z,102717.09
2023-04-19T01:22:38.223Z,102706.19
2023-04-19T01:25:05.263Z,102712.72
2023-04-19T01:27:31.897Z,102714.59
2023-04-19T01:29:58.468Z,102711.28
2023-04-19T01:32:26.404Z,102704.78
2023-04-19T01:34:53.232Z,102700.41
2023-04-19T01:37:19.833Z,102708.56
2023-04-19T01:39:46.544Z,102701.47
2023-04-19T01:42:13.150Z,102698.50
2023-04-19T01:44:39.809Z,102702.06
2023-04-19T01:47:06.433Z,102696.25
2023-04-19T01:49:32.948Z,102690.81
2023-04-19T01:51:59.578Z,102687.25
2023-04-19T01:54:27.005Z,102685.59
2023-04-19T01:56:53.523Z,102690.81
2023-04-19T01:59:20.118Z,102689.16
2023-04-19T02:01:46.740Z,102686.06
2023-04-19T02:04:13.518Z,102684.19
2023-04-19T02:06:40.334Z,102676.00
2023-04-19T02:09:06.806Z,102684.19
2023-04-19T02:11:33.443Z,102683.34
2023-04-19T02:13:59.949Z,102677.91
2023-04-19T02:16:29.272Z,102677.09
2023-04-19T02:18:55.976Z,102677.09
2023-04-19T02:21:22.509Z,102685.47
2023-04-19T02:23:48.997Z,102675.66
2023-04-19T02:26:15.636Z,102673.75
2023-04-19T02:28:42.258Z,102679.44
2023-04-19T02:31:08.829Z,102675.66
2023-04-19T02:33:35.729Z,102672.34
2023-04-19T02:36:02.611Z,102676.94
2023-04-19T02:38:29.135Z,102673.19
2023-04-19T02:40:55.687Z,102673.41
2023-04-19T02:43:22.277Z,102676.38
2023-04-19T02:45:49.089Z,102676.94
2023-04-19T02:48:15.761Z,102686.19
2023-04-19T02:50:42.310Z,102681.19
2023-04-19T02:53:08.846Z,102688.31
2023-04-19T02:55:35.500Z,102681.19
2023-04-19T02:58:02.171Z,102685.81
2023-04-19T03:00:28.904Z,102687.25
2023-04-19T03:02:56.323Z,102685.00
2023-04-19T03:05:23.831Z,102680.63
2023-04-19T03:07:50.572Z,102675.41
2023-04-19T03:10:17.363Z,102680.84
2023-04-19T03:12:44.066Z,102675.63
2023-04-19T03:15:11.225Z,102682.16
2023-04-19T03:17:38.047Z,102686.53
2023-04-19T03:20:11.868Z,102681.91
2023-04-19T03:22:38.848Z,102683.81
2023-04-19T03:25:07.090Z,102684.63
2023-04-19T03:27:36.721Z,102682.97
2023-04-19T03:30:03.544Z,102685.91
2023-04-19T03:32:31.674Z,102687.00
2023-04-19T03:34:58.300Z,102680.72
2023-04-19T03:37:24.964Z,102683.44
2023-04-19T03:39:51.508Z,102683.44
2023-04-19T03:42:18.041Z,102678.25
2023-04-19T03:44:44.664Z,102688.06
2023-04-19T03:47:11.235Z,102685.81
2023-04-19T03:49:37.820Z,102686.06
2023-04-19T03:52:04.570Z,102687.09
2023-04-19T03:54:31.379Z,102682.97
2023-04-19T03:56:57.918Z,102684.00
2023-04-19T03:59:24.437Z,102685.06
2023-04-19T04:01:50.993Z,102684.25
2023-04-19T04:04:18.095Z,102680.09
2023-04-19T04:06:45.267Z,102679.06
2023-04-19T04:09:11.829Z,102689.13
2023-04-19T04:11:38.344Z,102684.13
2023-04-19T04:14:04.935Z,102688.03
2023-04-19T04:16:31.499Z,102685.31
2023-04-19T04:18:58.147Z,102685.31
2023-04-19T04:21:24.795Z,102685.91
2023-04-19T04:23:51.503Z,102686.50
2023-04-19T04:26:20.203Z,102683.78
2023-04-19T04:28:47.188Z,102690.06
2023-04-19T04:31:13.713Z,102691.72
2023-04-19T04:33:41.602Z,102685.22
2023-04-19T04:36:09.807Z,102702.38
2023-04-19T04:38:37.003Z,102693.13
2023-04-19T04:41:03.558Z,102693.38
2023-04-19T04:43:30.170Z,102700.47
2023-04-19T04:45:57.897Z,102706.75
2023-04-19T04:48:25.222Z,102704.03
2023-04-19T04:50:51.792Z,102704.63
2023-04-19T04:53:18.380Z,102711.13
2023-04-19T04:55:44.856Z,102710.28
2023-04-19T04:58:11.353Z,102710.53
2023-04-19T05:00:37.901Z,102704.28
2023-04-19T05:03:04.579Z,102705.91
2023-04-19T05:05:31.575Z,102703.41
2023-04-19T05:07:58.117Z,102703.66
2023-04-19T05:10:24.650Z,102709.72
2023-04-19T05:12:51.114Z,102713.00
2023-04-19T05:15:17.734Z,102710.75
2023-04-19T05:17:44.346Z,102697.97
2023-04-19T05:20:11.467Z,102703.19
2023-04-19T05:22:38.360Z,102701.53
2023-04-19T05:25:06.056Z,102707.56
2023-04-19T05:27:32.611Z,102701.31
2023-04-19T05:29:59.173Z,102706.75
2023-04-19T05:32:26.236Z,102698.34
2023-04-19T05:34:52.893Z,102710.53
2023-04-19T05:37:19.417Z,102707.00
2023-04-19T05:39:45.944Z,102707.81
2023-04-19T05:42:12.466Z,102708.84
2023-04-19T05:44:39.021Z,102710.75
2023-04-19T05:47:05.601Z,102706.63
2023-04-19T05:49:32.123Z,102716.06
2023-04-19T05:51:58.692Z,102717.72
2023-04-19T05:54:25.351Z,102714.16
2023-04-19T05:56:51.928Z,102712.88
2023-04-19T05:59:18.483Z,102719.38
2023-04-19T06:01:45.131Z,102716.06
2023-04-19T06:04:11.925Z,102723.16
2023-04-19T06:06:38.562Z,102722.09
2023-04-19T06:09:06.828Z,102723.41
2023-04-19T06:11:42.857Z,102722.94
2023-04-19T06:14:14.831Z,102725.06
2023-04-19T06:16:41.840Z,102724.81
2023-04-19T06:19:10.816Z,102734.88
2023-04-19T06:21:37.383Z,102731.31
2023-04-19T06:24:04.419Z,102730.25
2023-04-19T06:26:31.020Z,102730.75
2023-04-19T06:28:57.689Z,102738.66
2023-04-19T06:31:24.588Z,102738.19
2023-04-19T06:33:51.243Z,102739.47
2023-04-19T06:36:18.124Z,102736.56
2023-04-19T06:38:46.242Z,102738.66
2023-04-19T06:41:12.998Z,102721.50
2023-04-19T06:43:40.903Z,102742.44
2023-04-19T06:46:07.971Z,102733.47
2023-04-19T06:48:37.410Z,102734.50
2023-04-19T06:51:04.119Z,102715.25
2023-04-19T06:53:30.752Z,102728.84
2023-04-19T06:56:01.875Z,102729.69
2023-04-19T06:58:29.091Z,102729.06
2023-04-19T07:00:56.229Z,102735.34
2023-04-19T07:03:25.228Z,102730.75
2023-04-19T07:05:56.522Z,102731.78
2023-04-19T07:08:26.314Z,102741.63
2023-04-19T07:10:56.937Z,102735.94
2023-04-19T07:13:24.042Z,102742.44
2023-04-19T07:15:50.724Z,102726.13
2023-04-19T07:18:17.371Z,102739.94
2023-04-19T07:20:46.718Z,102731.78
2023-04-19T07:23:13.315Z,102735.56
2023-04-19T07:25:39.859Z,102730.97
2023-04-19T07:28:06.569Z,102730.25
2023-04-19T07:30:33.632Z,102723.31
2023-04-19T07:33:00.268Z,102724.13
2023-04-19T07:35:27.132Z,102722.25
2023-04-19T07:37:53.668Z,102723.06
2023-04-19T07:40:20.366Z,102732.06
2023-04-19T07:42:46.905Z,102719.53
2023-04-19T07:45:14.597Z,102723.53
2023-04-19T07:47:41.244Z,102718.91
2023-04-19T07:50:08.584Z,102718.09
2023-04-19T07:52:35.159Z,102717.00
2023-04-19T07:55:01.801Z,102713.47
2023-04-19T07:57:28.527Z,102716.19
2023-04-19T07:59:58.067Z,102715.63
2023-04-19T08:02:27.950Z,102709.81
2023-04-19T08:04:54.813Z,102723.63
2023-04-19T08:07:23.069Z,102712.16
2023-04-19T08:09:49.980Z,102722.78
2023-04-19T08:12:30.304Z,102717.34
2023-04-19T08:15:09.858Z,102702.94
2023-04-19T08:17:45.692Z,102715.25
2023-04-19T08:20:12.725Z,102713.34
2023-04-19T08:22:40.862Z,102712.53
2023-04-19T08:25:08.234Z,102693.47
2023-04-19T08:27:36.032Z,102708.16
2023-04-19T08:30:03.529Z,102705.19
2023-04-19T08:32:30.171Z,102704.94
2023-04-19T08:34:57.339Z,102706.84
2023-04-19T08:37:25.693Z,102700.56
2023-04-19T08:39:52.260Z,102697.59
2023-04-19T08:45:13.072Z,102695.50
2023-04-19T08:47:51.792Z,102691.94
2023-04-19T08:50:33.160Z,102688.97
2023-04-19T08:53:16.175Z,102711.72
2023-04-19T08:58:30.631Z,102693.25
2023-04-19T09:01:12.854Z,102692.44
2023-04-19T09:04:00.201Z,102695.75
2023-04-19T09:06:29.976Z,102696.22
2023-04-19T09:09:34.842Z,102682.63
2023-04-19T09:12:03.724Z,102688.06
2023-04-19T09:14:30.620Z,102686.16
2023-04-19T09:17:16.595Z,102687.22
2023-04-19T09:19:47.845Z,102683.69
2023-04-19T09:22:14.907Z,102687.22
2023-04-19T09:27:12.331Z,102684.06
2023-04-19T09:29:39.858Z,102685.09
2023-04-19T09:32:06.611Z,102692.78
2023-04-19T09:34:33.349Z,102705.56
2023-04-19T09:37:22.858Z,102688.41
2023-04-19T09:39:59.642Z,102690.31
2023-04-19T09:43:05.345Z,102684.88
2023-04-19T09:45:43.274Z,102690.31
2023-04-19T09:48:10.898Z,102684.06
2023-04-19T09:50:57.458Z,102686.53
2023-04-19T09:53:28.310Z,102679.19
2023-04-19T09:56:01.588Z,102670.19
2023-04-19T09:58:41.667Z,102681.69
2023-04-19T10:01:17.025Z,102678.97
2023-04-19T10:06:40.014Z,102688.53
2023-04-19T10:09:05.232Z,102687.72
2023-04-19T10:11:40.234Z,102677.66
2023-04-19T10:14:09.178Z,102689.16
2023-04-19T10:16:37.591Z,102680.72
2023-04-19T10:19:09.956Z,102679.66
2023-04-19T10:21:40.609Z,102669.38
2023-04-19T10:24:08.462Z,102668.56
2023-04-19T10:27:13.330Z,102659.09
2023-04-19T10:30:08.092Z,102670.22
2023-04-19T10:32:40.045Z,102665.94
2023-04-19T10:35:21.502Z,102670.31
2023-04-19T10:38:12.938Z,102657.56
2023-04-19T10:40:51.895Z,102665.72
2023-04-19T10:43:19.906Z,102672.56
2023-04-19T10:45:47.098Z,102666.31
2023-04-19T10:48:33.598Z,102650.22
2023-04-19T10:51:05.870Z,102657.31
2023-04-19T10:53:55.796Z,102657.91
2023-04-19T10:56:34.587Z,102660.66
2023-04-19T10:59:11.698Z,102654.94
2023-04-19T11:01:46.541Z,102649.50
2023-04-19T11:04:23.305Z,102656.59
2023-04-19T11:06:52.857Z,102649.25
2023-04-19T11:09:42.294Z,102649.03
2023-04-19T11:12:13.568Z,102643.59
2023-04-19T11:14:46.973Z,102636.25
2023-04-19T11:17:18.653Z,102632.28
2023-04-19T11:19:52.724Z,102644.81
2023-04-19T11:22:24.220Z,102635.00
2023-04-19T11:24:50.894Z,102651.69
2023-04-19T11:27:17.964Z,102636.16
2023-04-19T11:29:44.873Z,102633.19
2023-04-19T11:32:11.450Z,102640.53
2023-04-19T11:34:39.364Z,102629.41
2023-04-19T11:37:06.090Z,102625.63
2023-04-19T11:39:32.821Z,102614.75
2023-04-19T11:41:59.599Z,102624.31
2023-04-19T11:44:26.195Z,102618.63
2023-04-19T11:47:08.221Z,102608.56
2023-04-19T11:49:34.833Z,102606.69
2023-04-19T11:52:06.137Z,102622.75
2023-04-19T11:54:34.018Z,102615.66
2023-04-19T11:57:09.498Z,102620.91
2023-04-19T11:59:36.845Z,102616.28
2023-04-19T12:02:08.850Z,102602.41
2023-04-19T12:04:36.247Z,102603.81
2023-04-19T12:07:04.890Z,102599.47
2023-04-19T12:09:34.663Z,102603.56
2023-04-19T12:12:02.213Z,102585.13
2023-04-19T12:14:29.577Z,102603.34
2023-04-19T12:17:10.090Z,102589.50
2023-04-19T12:19:37.479Z,102598.47
2023-04-19T12:22:22.029Z,102596.56
2023-04-19T12:24:52.108Z,102590.09
2023-04-19T12:27:18.725Z,102580.84
2023-04-19T12:29:46.083Z,102578.94
2023-04-19T12:32:13.201Z,102578.69
2023-04-19T12:34:39.899Z,102564.84
2023-04-19T12:37:09.446Z,102577.38
2023-04-19T12:39:36.100Z,102579.03
2023-04-19T12:42:03.031Z,102586.97
2023-04-19T12:44:29.585Z,102580.72
2023-04-19T12:46:57.636Z,102560.78
2023-04-19T12:49:24.565Z,102561.13
2023-04-19T12:51:51.082Z,102569.31
2023-04-19T12:54:17.686Z,102559.00
2023-04-19T12:56:44.238Z,102560.44
2023-04-19T12:59:11.513Z,102567.53
2023-04-19T13:01:38.703Z,102557.47
2023-04-19T13:04:05.655Z,102564.56
2023-04-19T13:06:32.389Z,102547.16
2023-04-19T13:09:01.170Z,102550.44
2023-04-19T13:11:28.282Z,102550.44
2023-04-19T13:13:54.869Z,102546.66
2023-04-19T13:16:22.492Z,102535.53
2023-04-19T13:18:49.310Z,102544.25
2023-04-19T13:21:15.860Z,102530.16
2023-04-19T13:23:44.530Z,102530.16
2023-04-19T13:26:11.652Z,102521.16
2023-04-19T13:28:38.277Z,102511.69
2023-04-19T13:31:05.324Z,102512.50
2023-04-19T13:33:31.927Z,102508.47
2023-04-19T13:35:58.480Z,102511.78
2023-04-19T13:38:25.238Z,102499.78
2023-04-19T13:40:51.888Z,102511.78
2023-04-19T13:43:18.490Z,102512.38
2023-04-19T13:45:45.952Z,102508.06
2023-04-19T13:48:12.576Z,102506.16
2023-04-19T13:50:39.282Z,102506.50
2023-04-19T13:53:05.883Z,102486.34
2023-04-19T13:55:32.469Z,102479.81
2023-04-19T13:57:59.458Z,102501.44
2023-04-19T14:00:26.300Z,102482.91
2023-04-19T14:02:54.414Z,102486.22
2023-04-19T14:05:21.073Z,102490.88
2023-04-19T14:07:47.644Z,102497.69
2023-04-19T14:10:14.186Z,102482.16
2023-04-19T14:12:40.878Z,102480.03
2023-04-19T14:15:07.959Z,102473.50
2023-04-19T14:17:35.965Z,102484.19
2023-04-19T14:20:03.901Z,102472.19
2023-04-19T14:22:32.610Z,102464.59
2023-04-19T14:24:59.155Z,102469.19
2023-04-19T14:27:26.376Z,102462.44
2023-04-19T14:29:52.896Z,102463.84
2023-04-19T14:32:25.038Z,102460.88
2023-04-19T14:34:53.791Z,102461.47
2023-04-19T14:37:21.756Z,102455.75
2023-04-19T14:39:48.354Z,102448.38
2023-04-19T14:42:14.955Z,102442.44
2023-04-19T14:44:41.521Z,102452.03
2023-04-19T14:47:08.290Z,102453.41
2023-04-19T14:49:34.810Z,102445.22
2023-04-19T14:52:01.385Z,102448.28
2023-04-19T14:54:28.021Z,102438.19
2023-04-19T14:56:54.559Z,102450.53
2023-04-19T14:59:21.504Z,102434.97
2023-04-19T15:01:48.267Z,102430.94
2023-04-19T15:04:15.306Z,102444.31
2023-04-19T15:06:42.198Z,102418.13
2023-04-19T15:09:08.779Z,102421.66
2023-04-19T15:11:35.319Z,102421.19
2023-04-19T15:14:02.212Z,102406.44
2023-04-19T15:16:29.172Z,102415.22
2023-04-19T15:18:55.872Z,102403.22
2023-04-19T15:21:24.583Z,102410.31
2023-04-19T15:23:51.705Z,102405.72
2023-04-19T15:26:18.255Z,102408.19
2023-04-19T15:28:44.877Z,102398.91
2023-04-19T15:31:11.785Z,102401.41
2023-04-19T15:33:38.529Z,102391.31
2023-04-19T15:36:05.655Z,102404.47
2023-04-19T15:38:32.787Z,102401.47
2023-04-19T15:41:00.419Z,102401.22
2023-04-19T15:43:27.314Z,102398.25
2023-04-19T15:45:53.890Z,102403.19
2023-04-19T15:48:20.893Z,102396.66
2023-04-19T15:50:47.444Z,102412.75
2023-04-19T15:53:14.183Z,102401.03
2023-04-19T15:55:41.553Z,102401.03
2023-04-19T15:58:08.277Z,102399.13
2023-04-19T16:00:35.064Z,102392.34
2023-04-19T16:03:02.011Z,102388.31
2023-04-19T16:05:29.042Z,102389.97
2023-04-19T16:08:07.281Z,102393.50
2023-04-19T16:10:34.603Z,102401.44
2023-04-19T16:13:05.979Z,102387.78
2023-04-19T16:15:33.073Z,102390.28
2023-04-19T16:17:59.669Z,102382.66
2023-04-19T16:20:26.204Z,102383.22
2023-04-19T16:22:52.731Z,102384.06
2023-04-19T16:25:19.368Z,102380.22
2023-04-19T16:27:46.621Z,102383.81
2023-04-19T16:30:15.053Z,102390.91
2023-04-19T16:32:42.514Z,102372.63
2023-04-19T16:35:09.880Z,102372.38
2023-04-19T16:37:36.574Z,102364.44
2023-04-19T16:40:09.803Z,102371.53
2023-04-19T16:42:40.760Z,102372.13
2023-04-19T16:45:08.684Z,102367.50
2023-04-19T16:47:36.312Z,102369.94
2023-04-19T16:50:03.884Z,102370.78
2023-04-19T16:52:32.469Z,102361.25
2023-04-19T16:55:03.942Z,102370.25
2023-04-19T16:57:31.662Z,102359.34
2023-04-19T17:00:01.060Z,102369.22
2023-04-19T17:02:27.845Z,102355.56
2023-04-19T17:04:54.969Z,102360.16
2023-04-19T17:07:21.638Z,102355.56
2023-04-19T17:09:48.195Z,102363.75
2023-04-19T17:12:14.688Z,102351.75
2023-04-19T17:14:41.289Z,102351.47
2023-04-19T17:17:07.923Z,102351.47
2023-04-19T17:19:36.135Z,102352.56
2023-04-19T17:22:05.779Z,102353.13
2023-04-19T17:24:33.636Z,102346.84
2023-04-19T17:27:01.038Z,102348.75
2023-04-19T17:29:27.749Z,102352.06
2023-04-19T17:31:54.426Z,102335.91
2023-04-19T17:34:21.092Z,102343.03
2023-04-19T17:36:47.645Z,102350.16
2023-04-19T17:39:14.276Z,102353.69
2023-04-19T17:41:41.511Z,102340.88
2023-04-19T17:44:08.035Z,102348.25
2023-04-19T17:46:34.726Z,102352.59
2023-04-19T17:49:01.402Z,102350.69
2023-04-19T17:51:27.983Z,102347.97
2023-04-19T17:53:54.752Z,102345.50
2023-04-19T17:56:21.368Z,102352.59
2023-04-19T17:58:47.866Z,102345.25
2023-04-19T18:01:16.307Z,102339.78
2023-04-19T18:03:43.081Z,102352.59
2023-04-19T18:06:13.038Z,102347.72
2023-04-19T18:08:39.582Z,102347.16
2023-04-19T18:11:06.993Z,102354.50
2023-04-19T18:13:33.526Z,102359.97
2023-04-19T18:16:00.632Z,102349.88
2023-04-19T18:18:27.213Z,102369.00
2023-04-19T18:20:53.858Z,102359.16
2023-04-19T18:23:20.430Z,102364.88
2023-04-19T18:25:56.300Z,102360.47
2023-04-19T18:28:22.850Z,102366.75
2023-04-19T18:30:49.372Z,102377.44
2023-04-19T18:33:15.945Z,102367.63
2023-04-19T18:35:42.574Z,102374.13
2023-04-19T18:38:11.170Z,102376.03
2023-04-19T18:40:37.731Z,102387.78
2023-04-19T18:43:04.310Z,102382.59
2023-04-19T18:45:31.593Z,102382.59
2023-04-19T18:48:03.743Z,102384.50
2023-04-19T18:50:31.457Z,102398.16
2023-04-19T18:52:58.523Z,102391.03
2023-04-19T18:55:26.573Z,102387.47
2023-04-19T18:57:53.168Z,102394.59
2023-04-19T19:00:21.748Z,102391.28
2023-04-19T19:02:48.518Z,102389.38
2023-04-19T19:05:16.062Z,102392.09
2023-04-19T19:07:43.140Z,102394.28
2023-04-19T19:10:19.249Z,102406.00
2023-04-19T19:12:48.596Z,102401.38
2023-04-19T19:15:15.539Z,102399.97
2023-04-19T19:17:43.215Z,102407.34
2023-04-19T19:20:10.238Z,102401.88
2023-04-19T19:22:36.810Z,102412.81
2023-04-19T19:25:03.749Z,102404.28
2023-04-19T19:27:30.697Z,102411.66
2023-04-19T19:29:58.882Z,102410.03
2023-04-19T19:32:25.655Z,102410.25
2023-04-19T19:34:56.349Z,102411.09
2023-04-19T19:37:28.379Z,102404.78
2023-04-19T19:39:56.362Z,102408.38
2023-04-19T19:42:23.631Z,102415.72
2023-04-19T19:44:54.280Z,102425.81
2023-04-19T19:47:21.189Z,102417.88
2023-04-19T19:50:17.205Z,102412.66
2023-04-19T19:52:34.311Z,102418.97
2023-04-19T19:55:01.222Z,102429.31
2023-04-19T20:00:18.054Z,102426.00
2023-04-19T20:02:54.652Z,102440.47
2023-04-19T20:05:23.195Z,102432.31
2023-04-19T20:10:19.629Z,102437.75
2023-04-19T20:12:47.188Z,102439.91
2023-04-19T20:15:14.129Z,102432.81
2023-04-19T20:17:41.496Z,102440.72
2023-04-19T20:20:11.348Z,102440.16
2023-04-19T20:22:38.456Z,102439.31
2023-04-19T20:25:05.555Z,102435.72
2023-04-19T20:27:32.757Z,102448.56
2023-04-19T20:30:00.573Z,102452.94
2023-04-19T20:32:27.259Z,102448.00
2023-04-19T20:34:53.974Z,102448.00
2023-04-19T20:37:23.240Z,102454.50
2023-04-19T20:39:49.802Z,102445.50
2023-04-19T20:42:16.785Z,102452.88
2023-04-19T20:44:43.277Z,102464.03
2023-04-19T20:47:10.402Z,102452.53
2023-04-19T20:49:36.893Z,102455.28
2023-04-19T20:52:03.525Z,102449.00
2023-04-19T20:54:30.163Z,102448.16
2023-04-19T20:57:00.868Z,102444.63
2023-04-19T20:59:27.494Z,102450.31
2023-04-19T21:01:54.037Z,102461.22
2023-04-19T21:04:20.727Z,102454.38
2023-04-19T21:06:47.428Z,102448.94
2023-04-19T21:09:14.088Z,102448.09
2023-04-19T21:11:40.760Z,102462.56
2023-04-19T21:14:07.322Z,102454.38
2023-04-19T21:16:34.025Z,102460.06
2023-04-19T21:19:00.779Z,102452.16
2023-04-19T21:21:27.990Z,102463.06
2023-04-19T21:23:54.492Z,102455.16
2023-04-19T21:26:21.201Z,102462.75
2023-04-19T21:28:48.050Z,102458.09
2023-04-19T21:31:14.667Z,102474.25
2023-04-19T21:33:41.189Z,102465.47
2023-04-19T21:36:08.261Z,102461.91
2023-04-19T21:38:34.963Z,102473.06
2023-04-19T21:41:01.504Z,102463.81
2023-04-19T21:43:28.019Z,102473.91
2023-04-19T21:45:54.659Z,102473.91
2023-04-19T21:48:21.164Z,102463.25
2023-04-19T21:50:47.728Z,102471.41
2023-04-19T21:53:14.275Z,102471.41
2023-04-19T21:55:40.865Z,102470.88
2023-04-19T21:58:07.359Z,102474.63
2023-04-19T22:00:33.866Z,102465.63
2023-04-19T22:03:00.550Z,102469.44
2023-04-19T22:05:27.166Z,102481.19
2023-04-19T22:07:55.221Z,102470.53
2023-04-19T22:10:22.624Z,102469.72
2023-04-19T22:12:57.891Z,102469.94
2023-04-19T22:15:26.482Z,102459.84
2023-04-19T22:17:53.139Z,102468.28
2023-04-19T22:20:20.075Z,102476.47
2023-04-19T22:22:46.665Z,102477.56
2023-04-19T22:25:13.249Z,102479.44
2023-04-19T22:27:39.880Z,102473.97
2023-04-19T22:30:07.612Z,102472.34
2023-04-19T22:32:34.153Z,102472.59
2023-04-19T22:35:00.682Z,102465.47
2023-04-19T22:37:27.251Z,102464.66
2023-04-19T22:39:53.886Z,102472.28
2023-04-19T22:42:20.593Z,102462.19
2023-04-19T22:44:47.073Z,102464.59
2023-04-19T22:47:14.581Z,102466.22
2023-04-19T22:49:43.079Z,102468.13
2023-04-19T22:52:10.009Z,102463.75
2023-04-19T22:54:36.645Z,102459.94
2023-04-19T22:57:03.554Z,102452.25
2023-04-19T22:59:30.133Z,102451.44
2023-04-19T23:01:56.767Z,102454.44
2023-04-19T23:04:24.141Z,102445.66
2023-04-19T23:06:50.732Z,102438.56
2023-04-19T23:09:18.149Z,102444.84
2023-04-19T23:11:46.329Z,102439.66
2023-04-19T23:14:13.014Z,102444.28
2023-04-19T23:16:39.572Z,102443.44
2023-04-19T23:19:07.594Z,102442.59
2023-04-19T23:21:34.569Z,102445.59
2023-04-19T23:24:01.126Z,102438.50
2023-04-19T23:26:27.845Z,102437.41
2023-04-19T23:28:54.363Z,102433.03
2023-04-19T23:31:21.261Z,102435.19
2023-04-19T23:33:48.666Z,102441.72
2023-04-19T23:36:15.435Z,102439.00
2023-04-19T23:38:42.073Z,102438.16
2023-04-19T23:41:12.672Z,102428.31
2023-04-19T23:43:39.177Z,102430.22
2023-04-19T23:46:07.105Z,102428.56
2023-04-19T23:48:33.709Z,102428.56
2023-04-19T23:51:00.206Z,102423.38
2023-04-19T23:53:26.796Z,102430.72
2023-04-19T23:55:53.276Z,102415.44
2023-04-19T23:58:19.818Z,102427.41
